sensor_id;sensor_type;location;lat;lon;timestamp;temperature;humidity
23385;DHT22;11865;45.394;10.978;2022-08-19T10:09:27;20.00;99.90
23385;DHT22;11865;45.394;10.978;2022-08-19T10:12:02;20.50;99.90
23385;DHT22;11865;45.394;10.978;2022-08-19T10:14:30;20.60;99.90
23385;DHT22;11865;45.394;10.978;2022-08-19T10:16:58;20.60;99.90
23385;DHT22;11865;45.394;10.978;2022-08-19T10:19:44;20.70;99.90
23385;DHT22;11865;45.394;10.978;2022-08-19T10:22:22;20.70;99.90
23385;DHT22;11865;45.394;10.978;2022-08-19T10:24:52;20.90;99.90
23385;DHT22;11865;45.394;10.978;2022-08-19T10:27:20;20.90;99.90
23385;DHT22;11865;45.394;10.978;2022-08-19T10:29:48;21.10;99.90
23385;DHT22;11865;45.394;10.978;2022-08-19T10:32:15;21.20;99.90
23385;DHT22;11865;45.394;10.978;2022-08-19T10:34:43;21.20;99.90
23385;DHT22;11865;45.394;10.978;2022-08-19T10:37:16;21.40;99.90
23385;DHT22;11865;45.394;10.978;2022-08-19T10:39:55;21.30;99.90
23385;DHT22;11865;45.394;10.978;2022-08-19T10:42:22;21.50;99.90
23385;DHT22;11865;45.394;10.978;2022-08-19T10:44:50;21.70;99.90
23385;DHT22;11865;45.394;10.978;2022-08-19T10:47:18;21.80;99.90
23385;DHT22;11865;45.394;10.978;2022-08-19T10:49:57;21.70;99.90
23385;DHT22;11865;45.394;10.978;2022-08-19T10:52:46;21.80;99.90
23385;DHT22;11865;45.394;10.978;2022-08-19T10:55:21;21.70;99.90
23385;DHT22;11865;45.394;10.978;2022-08-19T10:58:17;21.70;99.90
23385;DHT22;11865;45.394;10.978;2022-08-19T11:00:54;22.10;99.90
23385;DHT22;11865;45.394;10.978;2022-08-19T11:03:22;22.40;99.90
23385;DHT22;11865;45.394;10.978;2022-08-19T11:06:01;22.30;99.90
23385;DHT22;11865;45.394;10.978;2022-08-19T11:08:29;22.20;99.90
23385;DHT22;11865;45.394;10.978;2022-08-19T11:11:00;22.70;99.90
23385;DHT22;11865;45.394;10.978;2022-08-19T11:13:29;22.80;99.90
23385;DHT22;11865;45.394;10.978;2022-08-19T11:16:06;22.90;99.90
23385;DHT22;11865;45.394;10.978;2022-08-19T11:18:36;22.80;99.90
23385;DHT22;11865;45.394;10.978;2022-08-19T11:21:09;23.10;99.90
23385;DHT22;11865;45.394;10.978;2022-08-19T11:23:37;23.60;99.90
23385;DHT22;11865;45.394;10.978;2022-08-19T11:26:05;23.50;99.90
23385;DHT22;11865;45.394;10.978;2022-08-19T11:28:33;23.40;99.90
23385;DHT22;11865;45.394;10.978;2022-08-19T11:31:00;23.70;99.90
23385;DHT22;11865;45.394;10.978;2022-08-19T11:33:30;24.00;99.90
23385;DHT22;11865;45.394;10.978;2022-08-19T11:35:59;23.70;99.90
23385;DHT22;11865;45.394;10.978;2022-08-19T11:38:27;23.90;99.90
23385;DHT22;11865;45.394;10.978;2022-08-19T11:40:57;24.30;99.90
23385;DHT22;11865;45.394;10.978;2022-08-19T11:43:24;24.00;99.90
23385;DHT22;11865;45.394;10.978;2022-08-19T11:45:54;23.90;99.90
23385;DHT22;11865;45.394;10.978;2022-08-19T11:48:23;23.80;99.90
23385;DHT22;11865;45.394;10.978;2022-08-19T11:50:53;24.20;99.90
23385;DHT22;11865;45.394;10.978;2022-08-19T11:53:24;24.10;99.90
23385;DHT22;11865;45.394;10.978;2022-08-19T11:55:53;24.10;99.90
23385;DHT22;11865;45.394;10.978;2022-08-19T11:58:24;24.20;99.90
23385;DHT22;11865;45.394;10.978;2022-08-19T12:00:52;24.20;99.90
23385;DHT22;11865;45.394;10.978;2022-08-19T12:03:19;24.20;99.90
23385;DHT22;11865;45.394;10.978;2022-08-19T12:05:48;24.20;99.90
23385;DHT22;11865;45.394;10.978;2022-08-19T12:08:17;24.40;99.90
23385;DHT22;11865;45.394;10.978;2022-08-19T12:10:45;24.20;99.90
23385;DHT22;11865;45.394;10.978;2022-08-19T12:13:15;24.20;99.90
23385;DHT22;11865;45.394;10.978;2022-08-19T12:15:43;24.80;99.90
23385;DHT22;11865;45.394;10.978;2022-08-19T12:18:12;24.70;99.90
23385;DHT22;11865;45.394;10.978;2022-08-19T12:20:42;24.70;99.90
23385;DHT22;11865;45.394;10.978;2022-08-19T12:23:10;24.70;99.90
23385;DHT22;11865;45.394;10.978;2022-08-19T12:25:43;24.80;99.90
23385;DHT22;11865;45.394;10.978;2022-08-19T12:28:20;25.00;99.90
23385;DHT22;11865;45.394;10.978;2022-08-19T12:30:49;24.70;99.90
23385;DHT22;11865;45.394;10.978;2022-08-19T12:33:19;24.70;99.90
23385;DHT22;11865;45.394;10.978;2022-08-19T12:35:52;24.70;99.90
23385;DHT22;11865;45.394;10.978;2022-08-19T12:38:20;24.70;99.90
23385;DHT22;11865;45.394;10.978;2022-08-19T12:40:51;24.70;99.90
23385;DHT22;11865;45.394;10.978;2022-08-19T12:43:24;24.30;99.90
23385;DHT22;11865;45.394;10.978;2022-08-19T12:45:52;24.40;99.90
23385;DHT22;11865;45.394;10.978;2022-08-19T12:48:20;24.20;99.90
23385;DHT22;11865;45.394;10.978;2022-08-19T12:51:07;24.30;99.90
23385;DHT22;11865;45.394;10.978;2022-08-19T12:53:35;24.40;99.90
23385;DHT22;11865;45.394;10.978;2022-08-19T12:56:06;24.30;99.90
23385;DHT22;11865;45.394;10.978;2022-08-19T12:58:39;24.20;99.90
23385;DHT22;11865;45.394;10.978;2022-08-19T13:01:08;24.20;99.90
23385;DHT22;11865;45.394;10.978;2022-08-19T13:03:36;24.00;99.90
23385;DHT22;11865;45.394;10.978;2022-08-19T13:06:08;24.10;99.90
23385;DHT22;11865;45.394;10.978;2022-08-19T13:08:36;24.30;99.90
23385;DHT22;11865;45.394;10.978;2022-08-19T13:11:10;24.20;99.90
23385;DHT22;11865;45.394;10.978;2022-08-19T13:13:40;24.30;99.90
23385;DHT22;11865;45.394;10.978;2022-08-19T13:16:10;24.60;99.90
23385;DHT22;11865;45.394;10.978;2022-08-19T13:18:39;24.50;99.90
23385;DHT22;11865;45.394;10.978;2022-08-19T13:21:09;24.80;99.90
23385;DHT22;11865;45.394;10.978;2022-08-19T13:23:37;25.00;99.90
23385;DHT22;11865;45.394;10.978;2022-08-19T13:26:06;25.10;99.90
23385;DHT22;11865;45.394;10.978;2022-08-19T13:28:34;25.10;99.90
23385;DHT22;11865;45.394;10.978;2022-08-19T13:31:23;24.80;99.90
23385;DHT22;11865;45.394;10.978;2022-08-19T13:34:10;25.10;99.90
23385;DHT22;11865;45.394;10.978;2022-08-19T13:36:38;25.00;99.90
23385;DHT22;11865;45.394;10.978;2022-08-19T13:39:06;25.20;99.90
23385;DHT22;11865;45.394;10.978;2022-08-19T13:41:36;25.10;99.90
23385;DHT22;11865;45.394;10.978;2022-08-19T13:44:04;25.40;99.90
23385;DHT22;11865;45.394;10.978;2022-08-19T13:46:33;25.50;99.90
23385;DHT22;11865;45.394;10.978;2022-08-19T13:49:00;25.70;99.90
23385;DHT22;11865;45.394;10.978;2022-08-19T13:51:28;25.70;99.90
23385;DHT22;11865;45.394;10.978;2022-08-19T13:53:55;25.60;99.90
23385;DHT22;11865;45.394;10.978;2022-08-19T13:56:23;25.60;99.90
23385;DHT22;11865;45.394;10.978;2022-08-19T13:58:53;25.60;99.90
23385;DHT22;11865;45.394;10.978;2022-08-19T14:01:23;25.40;99.90
23385;DHT22;11865;45.394;10.978;2022-08-19T14:03:51;25.40;99.90
23385;DHT22;11865;45.394;10.978;2022-08-19T14:06:19;25.30;99.90
23385;DHT22;11865;45.394;10.978;2022-08-19T14:08:48;25.30;99.90
23385;DHT22;11865;45.394;10.978;2022-08-19T14:11:16;25.20;99.90
23385;DHT22;11865;45.394;10.978;2022-08-19T14:13:44;25.10;99.90
23385;DHT22;11865;45.394;10.978;2022-08-19T14:16:13;25.30;99.90
23385;DHT22;11865;45.394;10.978;2022-08-19T14:18:42;25.00;99.90
23385;DHT22;11865;45.394;10.978;2022-08-19T14:21:16;24.80;99.90
23385;DHT22;11865;45.394;10.978;2022-08-19T14:23:44;25.00;99.90
23385;DHT22;11865;45.394;10.978;2022-08-19T14:26:16;25.10;99.90
23385;DHT22;11865;45.394;10.978;2022-08-19T14:28:44;25.50;99.90
23385;DHT22;11865;45.394;10.978;2022-08-19T14:31:14;25.30;99.90
23385;DHT22;11865;45.394;10.978;2022-08-19T14:33:48;25.20;99.90
23385;DHT22;11865;45.394;10.978;2022-08-19T14:36:16;25.30;99.90
23385;DHT22;11865;45.394;10.978;2022-08-19T14:38:44;25.50;99.90
23385;DHT22;11865;45.394;10.978;2022-08-19T14:41:20;25.50;99.90
23385;DHT22;11865;45.394;10.978;2022-08-19T14:43:49;25.60;99.90
23385;DHT22;11865;45.394;10.978;2022-08-19T14:46:23;25.60;99.90
23385;DHT22;11865;45.394;10.978;2022-08-19T14:48:55;25.70;99.90
23385;DHT22;11865;45.394;10.978;2022-08-19T14:51:24;25.80;99.90
23385;DHT22;11865;45.394;10.978;2022-08-19T14:53:52;25.80;99.90
23385;DHT22;11865;45.394;10.978;2022-08-19T14:56:24;25.70;99.90
23385;DHT22;11865;45.394;10.978;2022-08-19T14:58:51;25.80;99.90
23385;DHT22;11865;45.394;10.978;2022-08-19T15:01:21;25.90;99.90
23385;DHT22;11865;45.394;10.978;2022-08-19T15:03:49;26.10;99.90
23385;DHT22;11865;45.394;10.978;2022-08-19T15:06:21;26.00;99.90
23385;DHT22;11865;45.394;10.978;2022-08-19T15:08:49;26.10;99.90
23385;DHT22;11865;45.394;10.978;2022-08-19T15:11:21;26.30;99.90
23385;DHT22;11865;45.394;10.978;2022-08-19T15:13:50;26.20;99.90
23385;DHT22;11865;45.394;10.978;2022-08-19T15:16:18;26.40;99.90
23385;DHT22;11865;45.394;10.978;2022-08-19T15:18:49;26.30;99.90
23385;DHT22;11865;45.394;10.978;2022-08-19T15:21:18;26.60;99.90
23385;DHT22;11865;45.394;10.978;2022-08-19T15:23:55;26.60;99.90
23385;DHT22;11865;45.394;10.978;2022-08-19T15:26:23;26.60;99.90
23385;DHT22;11865;45.394;10.978;2022-08-19T15:28:53;26.60;99.90
23385;DHT22;11865;45.394;10.978;2022-08-19T15:31:21;26.40;99.90
23385;DHT22;11865;45.394;10.978;2022-08-19T15:33:56;26.60;99.90
23385;DHT22;11865;45.394;10.978;2022-08-19T15:36:26;26.70;99.90
23385;DHT22;11865;45.394;10.978;2022-08-19T15:38:55;26.80;99.90
23385;DHT22;11865;45.394;10.978;2022-08-19T15:41:25;26.80;99.90
23385;DHT22;11865;45.394;10.978;2022-08-19T15:44:00;27.00;99.90
23385;DHT22;11865;45.394;10.978;2022-08-19T15:46:32;27.30;99.90
23385;DHT22;11865;45.394;10.978;2022-08-19T15:49:00;27.30;99.90
23385;DHT22;11865;45.394;10.978;2022-08-19T15:51:30;27.20;99.90
23385;DHT22;11865;45.394;10.978;2022-08-19T15:53:58;27.20;99.90
23385;DHT22;11865;45.394;10.978;2022-08-19T15:56:26;27.30;99.90
23385;DHT22;11865;45.394;10.978;2022-08-19T15:59:25;27.10;99.90
23385;DHT22;11865;45.394;10.978;2022-08-19T16:02:16;26.90;99.90
23385;DHT22;11865;45.394;10.978;2022-08-19T16:05:05;26.90;99.90
23385;DHT22;11865;45.394;10.978;2022-08-19T16:07:52;26.90;99.90
23385;DHT22;11865;45.394;10.978;2022-08-19T16:10:21;26.70;99.90
23385;DHT22;11865;45.394;10.978;2022-08-19T16:12:55;26.40;99.90
23385;DHT22;11865;45.394;10.978;2022-08-19T16:15:28;26.50;99.90
23385;DHT22;11865;45.394;10.978;2022-08-19T16:17:57;26.60;99.90
23385;DHT22;11865;45.394;10.978;2022-08-19T16:20:25;26.40;99.90
23385;DHT22;11865;45.394;10.978;2022-08-19T16:22:55;26.30;99.90
23385;DHT22;11865;45.394;10.978;2022-08-19T16:25:25;26.20;99.90
23385;DHT22;11865;45.394;10.978;2022-08-19T16:27:56;26.30;99.90
23385;DHT22;11865;45.394;10.978;2022-08-19T16:30:36;26.10;99.90
23385;DHT22;11865;45.394;10.978;2022-08-19T16:33:05;26.10;99.90
23385;DHT22;11865;45.394;10.978;2022-08-19T16:35:33;26.30;99.90
23385;DHT22;11865;45.394;10.978;2022-08-19T16:38:01;26.70;99.90
23385;DHT22;11865;45.394;10.978;2022-08-19T16:40:28;26.80;99.90
23385;DHT22;11865;45.394;10.978;2022-08-19T16:42:56;27.00;99.90
23385;DHT22;11865;45.394;10.978;2022-08-19T16:45:23;26.90;99.90
23385;DHT22;11865;45.394;10.978;2022-08-19T16:47:51;26.90;99.90
23385;DHT22;11865;45.394;10.978;2022-08-19T16:50:18;26.90;99.90
23385;DHT22;11865;45.394;10.978;2022-08-19T16:53:08;26.80;99.90
23385;DHT22;11865;45.394;10.978;2022-08-19T16:55:35;26.70;99.90
23385;DHT22;11865;45.394;10.978;2022-08-19T16:58:03;26.70;99.90
23385;DHT22;11865;45.394;10.978;2022-08-19T17:00:31;26.60;99.90
23385;DHT22;11865;45.394;10.978;2022-08-19T17:03:06;26.60;99.90
23385;DHT22;11865;45.394;10.978;2022-08-19T17:05:46;26.50;99.90
23385;DHT22;11865;45.394;10.978;2022-08-19T17:08:15;26.40;99.90
23385;DHT22;11865;45.394;10.978;2022-08-19T17:10:44;26.30;99.90
23385;DHT22;11865;45.394;10.978;2022-08-19T17:13:32;26.20;99.90
23385;DHT22;11865;45.394;10.978;2022-08-19T17:15:59;26.10;99.90
23385;DHT22;11865;45.394;10.978;2022-08-19T17:18:27;26.00;99.90
23385;DHT22;11865;45.394;10.978;2022-08-19T17:21:01;25.80;99.90
23385;DHT22;11865;45.394;10.978;2022-08-19T17:23:29;25.60;99.90
23385;DHT22;11865;45.394;10.978;2022-08-19T17:26:11;25.50;99.90
23385;DHT22;11865;45.394;10.978;2022-08-19T17:28:45;25.40;99.90
23385;DHT22;11865;45.394;10.978;2022-08-19T17:31:18;25.20;99.90
23385;DHT22;11865;45.394;10.978;2022-08-19T17:33:45;25.10;99.90
23385;DHT22;11865;45.394;10.978;2022-08-19T17:36:16;24.90;99.90
23385;DHT22;11865;45.394;10.978;2022-08-19T17:38:45;24.90;99.90
23385;DHT22;11865;45.394;10.978;2022-08-19T17:41:12;24.80;99.90
23385;DHT22;11865;45.394;10.978;2022-08-19T17:43:40;24.70;99.90
23385;DHT22;11865;45.394;10.978;2022-08-19T17:46:11;24.60;99.90
23385;DHT22;11865;45.394;10.978;2022-08-19T17:48:49;24.40;99.90
23385;DHT22;11865;45.394;10.978;2022-08-19T17:51:39;24.20;99.90
23385;DHT22;11865;45.394;10.978;2022-08-19T17:54:11;24.20;99.90
23385;DHT22;11865;45.394;10.978;2022-08-19T17:56:39;24.30;99.90
23385;DHT22;11865;45.394;10.978;2022-08-19T17:59:08;24.00;99.90
23385;DHT22;11865;45.394;10.978;2022-08-19T18:01:42;24.00;99.90
23385;DHT22;11865;45.394;10.978;2022-08-19T18:04:23;24.10;99.90
23385;DHT22;11865;45.394;10.978;2022-08-19T18:06:52;24.10;99.90
23385;DHT22;11865;45.394;10.978;2022-08-19T18:09:26;24.20;99.90
23385;DHT22;11865;45.394;10.978;2022-08-19T18:17:41;24.10;99.90
23385;DHT22;11865;45.394;10.978;2022-08-19T18:20:11;23.90;99.90
23385;DHT22;11865;45.394;10.978;2022-08-19T18:22:42;23.80;99.90
23385;DHT22;11865;45.394;10.978;2022-08-19T18:25:15;23.80;99.90
23385;DHT22;11865;45.394;10.978;2022-08-19T18:27:45;23.80;99.90
23385;DHT22;11865;45.394;10.978;2022-08-19T18:30:13;23.70;99.90
23385;DHT22;11865;45.394;10.978;2022-08-19T18:32:41;23.40;99.90
23385;DHT22;11865;45.394;10.978;2022-08-19T18:35:13;23.10;99.90
23385;DHT22;11865;45.394;10.978;2022-08-19T18:37:41;23.00;99.90
23385;DHT22;11865;45.394;10.978;2022-08-19T18:40:13;22.60;99.90
23385;DHT22;11865;45.394;10.978;2022-08-19T18:42:59;22.40;99.90
23385;DHT22;11865;45.394;10.978;2022-08-19T18:45:45;22.30;99.90
23385;DHT22;11865;45.394;10.978;2022-08-19T18:48:34;22.20;99.90
23385;DHT22;11865;45.394;10.978;2022-08-19T18:51:22;22.20;99.90
23385;DHT22;11865;45.394;10.978;2022-08-19T18:53:54;22.50;99.90
23385;DHT22;11865;45.394;10.978;2022-08-19T18:56:25;22.70;99.90
23385;DHT22;11865;45.394;10.978;2022-08-19T18:58:55;22.90;99.90
23385;DHT22;11865;45.394;10.978;2022-08-19T19:01:43;23.10;99.90
23385;DHT22;11865;45.394;10.978;2022-08-19T19:04:19;23.00;99.90
23385;DHT22;11865;45.394;10.978;2022-08-19T19:06:47;23.10;99.90
23385;DHT22;11865;45.394;10.978;2022-08-19T19:09:17;23.10;99.90
23385;DHT22;11865;45.394;10.978;2022-08-19T19:11:49;23.10;99.90
23385;DHT22;11865;45.394;10.978;2022-08-19T19:14:25;23.20;99.90
23385;DHT22;11865;45.394;10.978;2022-08-19T19:17:15;23.20;99.90
23385;DHT22;11865;45.394;10.978;2022-08-19T19:19:43;23.10;99.90
23385;DHT22;11865;45.394;10.978;2022-08-19T19:22:13;23.00;99.90
23385;DHT22;11865;45.394;10.978;2022-08-19T19:24:41;23.00;99.90
23385;DHT22;11865;45.394;10.978;2022-08-19T19:27:14;23.00;99.90
23385;DHT22;11865;45.394;10.978;2022-08-19T19:29:41;22.90;99.90
23385;DHT22;11865;45.394;10.978;2022-08-19T19:32:16;22.70;99.90
23385;DHT22;11865;45.394;10.978;2022-08-19T19:34:44;22.70;99.90
23385;DHT22;11865;45.394;10.978;2022-08-19T19:37:12;22.80;99.90
23385;DHT22;11865;45.394;10.978;2022-08-19T19:39:39;22.80;99.90
23385;DHT22;11865;45.394;10.978;2022-08-19T19:42:15;22.80;99.90
23385;DHT22;11865;45.394;10.978;2022-08-19T19:44:48;22.70;99.90
23385;DHT22;11865;45.394;10.978;2022-08-19T19:47:17;22.70;99.90
23385;DHT22;11865;45.394;10.978;2022-08-19T19:49:46;22.70;99.90
23385;DHT22;11865;45.394;10.978;2022-08-19T19:52:38;22.60;99.90
23385;DHT22;11865;45.394;10.978;2022-08-19T19:55:07;22.70;99.90
23385;DHT22;11865;45.394;10.978;2022-08-19T19:57:35;22.70;99.90
23385;DHT22;11865;45.394;10.978;2022-08-19T20:00:06;22.60;99.90
23385;DHT22;11865;45.394;10.978;2022-08-19T20:02:35;22.70;99.90
23385;DHT22;11865;45.394;10.978;2022-08-19T20:05:03;22.60;99.90
23385;DHT22;11865;45.394;10.978;2022-08-19T20:07:30;22.60;99.90
23385;DHT22;11865;45.394;10.978;2022-08-19T20:10:16;22.60;99.90
23385;DHT22;11865;45.394;10.978;2022-08-19T20:12:44;22.50;99.90
23385;DHT22;11865;45.394;10.978;2022-08-19T20:15:11;22.40;99.90
23385;DHT22;11865;45.394;10.978;2022-08-19T20:17:41;22.30;99.90
23385;DHT22;11865;45.394;10.978;2022-08-19T20:20:12;22.40;99.90
23385;DHT22;11865;45.394;10.978;2022-08-19T20:22:42;22.10;99.90
23385;DHT22;11865;45.394;10.978;2022-08-19T20:25:10;21.90;99.90
23385;DHT22;11865;45.394;10.978;2022-08-19T20:27:38;21.80;99.90
23385;DHT22;11865;45.394;10.978;2022-08-19T20:30:10;21.90;99.90
23385;DHT22;11865;45.394;10.978;2022-08-19T20:32:41;21.90;99.90
23385;DHT22;11865;45.394;10.978;2022-08-19T20:35:10;21.90;99.90
23385;DHT22;11865;45.394;10.978;2022-08-19T20:37:38;22.00;99.90
23385;DHT22;11865;45.394;10.978;2022-08-19T20:40:07;21.90;99.90
23385;DHT22;11865;45.394;10.978;2022-08-19T20:42:40;22.00;99.90
23385;DHT22;11865;45.394;10.978;2022-08-19T20:45:12;22.00;99.90
23385;DHT22;11865;45.394;10.978;2022-08-19T20:48:00;21.90;99.90
23385;DHT22;11865;45.394;10.978;2022-08-19T20:50:31;21.90;99.90
23385;DHT22;11865;45.394;10.978;2022-08-19T20:52:59;21.90;99.90
23385;DHT22;11865;45.394;10.978;2022-08-19T20:55:27;21.90;99.90
23385;DHT22;11865;45.394;10.978;2022-08-19T20:57:56;22.00;99.90
23385;DHT22;11865;45.394;10.978;2022-08-19T21:00:24;21.90;99.90
23385;DHT22;11865;45.394;10.978;2022-08-19T21:02:52;22.00;99.90
23385;DHT22;11865;45.394;10.978;2022-08-19T21:05:20;21.90;99.90
23385;DHT22;11865;45.394;10.978;2022-08-19T21:07:47;22.00;99.90
23385;DHT22;11865;45.394;10.978;2022-08-19T21:10:14;21.90;99.90
23385;DHT22;11865;45.394;10.978;2022-08-19T21:12:42;21.90;99.90
23385;DHT22;11865;45.394;10.978;2022-08-19T21:15:10;21.90;99.90
23385;DHT22;11865;45.394;10.978;2022-08-19T21:17:38;21.90;99.90
23385;DHT22;11865;45.394;10.978;2022-08-19T21:20:07;21.90;99.90
23385;DHT22;11865;45.394;10.978;2022-08-19T21:22:36;21.80;99.90
23385;DHT22;11865;45.394;10.978;2022-08-19T21:25:04;21.70;99.90
23385;DHT22;11865;45.394;10.978;2022-08-19T21:27:32;21.70;99.90
23385;DHT22;11865;45.394;10.978;2022-08-19T21:29:59;21.70;99.90
23385;DHT22;11865;45.394;10.978;2022-08-19T21:32:27;21.70;99.90
23385;DHT22;11865;45.394;10.978;2022-08-19T21:34:55;21.60;99.90
23385;DHT22;11865;45.394;10.978;2022-08-19T21:37:23;21.60;99.90
23385;DHT22;11865;45.394;10.978;2022-08-19T21:39:53;21.60;99.90
23385;DHT22;11865;45.394;10.978;2022-08-19T21:42:22;21.40;99.90
23385;DHT22;11865;45.394;10.978;2022-08-19T21:44:49;21.40;99.90
23385;DHT22;11865;45.394;10.978;2022-08-19T21:47:17;21.20;99.90
23385;DHT22;11865;45.394;10.978;2022-08-19T21:49:44;21.30;99.90
23385;DHT22;11865;45.394;10.978;2022-08-19T21:52:12;21.20;99.90
23385;DHT22;11865;45.394;10.978;2022-08-19T21:54:39;21.30;99.90
23385;DHT22;11865;45.394;10.978;2022-08-19T21:57:07;21.30;99.90
23385;DHT22;11865;45.394;10.978;2022-08-19T21:59:40;21.20;99.90
23385;DHT22;11865;45.394;10.978;2022-08-19T22:02:13;21.40;99.90
23385;DHT22;11865;45.394;10.978;2022-08-19T22:04:48;21.20;99.90
23385;DHT22;11865;45.394;10.978;2022-08-19T22:07:16;21.30;99.90
23385;DHT22;11865;45.394;10.978;2022-08-19T22:09:46;20.90;99.90
23385;DHT22;11865;45.394;10.978;2022-08-19T22:12:25;21.00;99.90
23385;DHT22;11865;45.394;10.978;2022-08-19T22:14:53;20.60;99.90
23385;DHT22;11865;45.394;10.978;2022-08-19T22:17:21;20.60;99.90
23385;DHT22;11865;45.394;10.978;2022-08-19T22:19:49;20.50;99.90
23385;DHT22;11865;45.394;10.978;2022-08-19T22:22:29;20.60;99.90
23385;DHT22;11865;45.394;10.978;2022-08-19T22:25:10;20.60;99.90
23385;DHT22;11865;45.394;10.978;2022-08-19T22:27:38;20.70;99.90
23385;DHT22;11865;45.394;10.978;2022-08-19T22:30:10;20.90;99.90
23385;DHT22;11865;45.394;10.978;2022-08-19T22:32:46;20.90;99.90
23385;DHT22;11865;45.394;10.978;2022-08-19T22:35:23;20.60;99.90
23385;DHT22;11865;45.394;10.978;2022-08-19T22:37:51;20.30;99.90
23385;DHT22;11865;45.394;10.978;2022-08-19T22:40:19;20.20;99.90
23385;DHT22;11865;45.394;10.978;2022-08-19T22:42:46;20.40;99.90
23385;DHT22;11865;45.394;10.978;2022-08-19T22:45:16;20.20;99.90
23385;DHT22;11865;45.394;10.978;2022-08-19T22:47:44;20.10;99.90
23385;DHT22;11865;45.394;10.978;2022-08-19T22:50:11;20.10;99.90
23385;DHT22;11865;45.394;10.978;2022-08-19T22:52:40;20.30;99.90
23385;DHT22;11865;45.394;10.978;2022-08-19T22:55:18;20.50;99.90
23385;DHT22;11865;45.394;10.978;2022-08-19T22:57:45;20.50;99.90
23385;DHT22;11865;45.394;10.978;2022-08-19T23:00:14;20.30;99.90
23385;DHT22;11865;45.394;10.978;2022-08-19T23:02:42;20.20;99.90
23385;DHT22;11865;45.394;10.978;2022-08-19T23:05:19;20.10;99.90
23385;DHT22;11865;45.394;10.978;2022-08-19T23:07:49;20.20;99.90
23385;DHT22;11865;45.394;10.978;2022-08-19T23:10:20;20.00;99.90
23385;DHT22;11865;45.394;10.978;2022-08-19T23:12:55;19.90;99.90
23385;DHT22;11865;45.394;10.978;2022-08-19T23:15:28;19.90;99.90
23385;DHT22;11865;45.394;10.978;2022-08-19T23:17:58;19.80;99.90
23385;DHT22;11865;45.394;10.978;2022-08-19T23:20:32;19.60;99.90
23385;DHT22;11865;45.394;10.978;2022-08-19T23:23:05;19.70;99.90
23385;DHT22;11865;45.394;10.978;2022-08-19T23:25:35;19.80;99.90
23385;DHT22;11865;45.394;10.978;2022-08-19T23:28:04;20.00;99.90
23385;DHT22;11865;45.394;10.978;2022-08-19T23:30:51;20.00;99.90
23385;DHT22;11865;45.394;10.978;2022-08-19T23:33:31;20.10;99.90
23385;DHT22;11865;45.394;10.978;2022-08-19T23:36:18;19.90;99.90
23385;DHT22;11865;45.394;10.978;2022-08-19T23:38:47;19.70;99.90
23385;DHT22;11865;45.394;10.978;2022-08-19T23:41:18;19.80;99.90
23385;DHT22;11865;45.394;10.978;2022-08-19T23:43:46;19.70;99.90
23385;DHT22;11865;45.394;10.978;2022-08-19T23:46:17;19.70;99.90
23385;DHT22;11865;45.394;10.978;2022-08-19T23:48:54;19.70;99.90
23385;DHT22;11865;45.394;10.978;2022-08-19T23:51:22;19.60;99.90
23385;DHT22;11865;45.394;10.978;2022-08-19T23:53:49;19.60;99.90
23385;DHT22;11865;45.394;10.978;2022-08-19T23:56:17;19.70;99.90
23385;DHT22;11865;45.394;10.978;2022-08-19T23:58:44;19.80;99.90
